Time;durP1;ratioP1;P1;durP2;ratioP2;P2;SDS_P1;SDS_P2;PMS_P1;PMS_P2;Temp;Humidity;BMP_temperature;BMP_pressure;BME280_temperature;BME280_humidity;BME280_pressure;Samples;Min_cycle;Max_cycle;Signal;HPM_P1;HPM_P2
2021/06/28 00:03:10;;;;;;;5.88;5.40;;;;;;;23.28;63.79;99930.59;10344928;28;20491;-54
2021/06/28 00:08:12;;;;;;;7.78;7.15;;;;;;;23.23;64.12;99930.41;10328212;28;20050;-52
2021/06/28 00:13:13;;;;;;;6.13;5.63;;;;;;;23.17;64.26;99933.97;10344754;28;20088;-54
2021/06/28 00:18:16;;;;;;;6.50;6.00;;;;;;;23.12;63.95;99937.31;10334702;28;20049;-54
2021/06/28 00:23:18;;;;;;;6.93;6.40;;;;;;;23.12;63.77;99934.63;10346056;28;20057;-54
2021/06/28 00:28:21;;;;;;;7.13;6.53;;;;;;;23.08;63.89;99929.78;10345325;28;20059;-54
2021/06/28 00:33:24;;;;;;;7.22;6.60;;;;;;;23.03;64.29;99932.28;10318465;28;20065;-54
2021/06/28 00:38:26;;;;;;;6.60;6.00;;;;;;;22.97;64.36;99923.16;10345689;28;20061;-53
2021/06/28 00:43:27;;;;;;;7.50;6.80;;;;;;;22.92;64.80;99921.09;10330253;28;20060;-54
2021/06/28 00:48:29;;;;;;;7.50;6.90;;;;;;;22.88;64.27;99914.41;10326702;28;20042;-53
2021/06/28 00:53:31;;;;;;;6.82;6.22;;;;;;;22.85;64.37;99920.25;10337509;28;20042;-53
2021/06/28 00:58:32;;;;;;;7.25;6.70;;;;;;;22.83;64.59;99918.78;10339406;28;20056;-53
2021/06/28 01:03:34;;;;;;;7.25;6.57;;;;;;;22.79;64.96;99921.09;10344717;28;20518;-54
2021/06/28 01:08:36;;;;;;;6.78;6.15;;;;;;;22.73;65.01;99916.53;10352710;28;20512;-53
2021/06/28 01:13:40;;;;;;;6.95;6.30;;;;;;;22.65;65.63;99925.69;10349340;28;20068;-54
2021/06/28 01:18:42;;;;;;;6.97;6.38;;;;;;;22.60;65.58;99923.63;10355720;28;20155;-53
2021/06/28 01:23:44;;;;;;;6.97;6.28;;;;;;;22.55;66.09;99917.19;10353228;28;20533;-53
2021/06/28 01:28:45;;;;;;;7.25;6.13;;;;;;;22.52;65.79;99926.56;10352079;28;20049;-52
2021/06/28 01:33:47;;;;;;;7.50;6.88;;;;;;;22.48;66.13;99933.44;10347399;28;20191;-52
2021/06/28 01:38:50;;;;;;;7.07;6.40;;;;;;;22.44;65.95;99926.75;10316928;28;20053;-54
2021/06/28 01:43:53;;;;;;;7.05;6.45;;;;;;;22.37;65.93;99918.66;10339938;28;20472;-53
2021/06/28 01:48:54;;;;;;;6.97;6.40;;;;;;;22.37;65.70;99917.81;10341131;28;20056;-53
2021/06/28 01:53:56;;;;;;;6.03;5.53;;;;;;;22.37;65.49;99924.06;10350007;28;20115;-52
2021/06/28 01:58:57;;;;;;;6.68;6.18;;;;;;;22.37;65.46;99934.09;10346312;28;20054;-57
2021/06/28 02:03:59;;;;;;;6.32;5.72;;;;;;;22.34;65.76;99931.78;10349576;28;20050;-52
2021/06/28 02:09:00;;;;;;;6.78;6.18;;;;;;;22.36;65.75;99940.53;10346117;28;20054;-53
2021/06/28 02:14:02;;;;;;;5.90;5.47;;;;;;;22.37;65.86;99950.34;10354832;28;20560;-53
2021/06/28 02:19:04;;;;;;;6.40;5.90;;;;;;;22.34;66.19;99943.47;10349703;28;20049;-53
2021/06/28 02:24:05;;;;;;;7.63;6.93;;;;;;;22.33;65.69;99944.50;10346530;28;20499;-53
2021/06/28 02:29:08;;;;;;;6.32;5.82;;;;;;;22.32;66.59;99947.41;10332229;28;20053;-53
2021/06/28 02:34:09;;;;;;;6.90;6.30;;;;;;;22.29;66.80;99942.38;10345830;28;20057;-52
2021/06/28 02:39:11;;;;;;;8.38;7.63;;;;;;;22.29;66.91;99939.69;10344546;28;20050;-53
2021/06/28 02:44:13;;;;;;;7.97;7.22;;;;;;;22.28;67.10;99935.28;10354743;28;20419;-53
2021/06/28 02:49:14;;;;;;;7.93;7.32;;;;;;;22.18;67.53;99931.13;10348231;28;20184;-53
2021/06/28 02:54:16;;;;;;;7.30;6.72;;;;;;;22.20;67.15;99928.19;10341199;28;20491;-52
2021/06/28 02:59:18;;;;;;;7.93;7.32;;;;;;;22.21;67.17;99929.88;10326700;28;20282;-53
2021/06/28 03:04:19;;;;;;;8.35;7.55;;;;;;;22.20;67.69;99926.34;10347570;28;20211;-53
2021/06/28 03:09:21;;;;;;;8.63;7.93;;;;;;;22.09;67.94;99932.38;10330565;28;20046;-53
2021/06/28 03:14:22;;;;;;;9.07;7.65;;;;;;;22.01;68.23;99919.84;10337323;28;20057;-53
2021/06/28 03:19:24;;;;;;;7.93;7.20;;;;;;;22.03;68.19;99925.06;10347872;28;20046;-53
2021/06/28 03:24:25;;;;;;;8.15;7.45;;;;;;;22.08;68.10;99930.69;10343815;28;20053;-54
2021/06/28 03:29:27;;;;;;;8.27;7.47;;;;;;;22.07;68.21;99943.41;10345526;28;20046;-53
2021/06/28 03:34:28;;;;;;;8.38;7.60;;;;;;;21.92;68.97;99936.50;10346987;28;20057;-52
2021/06/28 03:39:31;;;;;;;9.82;8.93;;;;;;;21.84;70.25;99918.56;10347552;28;20048;-53
2021/06/28 03:44:32;;;;;;;9.60;8.60;;;;;;;21.79;70.13;99927.31;10349302;28;20506;-61
2021/06/28 03:49:35;;;;;;;8.43;7.68;;;;;;;21.81;70.54;99922.53;10348583;28;20054;-61
2021/06/28 03:54:36;;;;;;;8.82;7.95;;;;;;;21.83;69.81;99917.75;10349172;28;20054;-60
2021/06/28 03:59:38;;;;;;;7.60;6.97;;;;;;;21.84;69.22;99924.84;10348406;28;20050;-60
2021/06/28 04:04:48;;;;;;;8.07;7.38;;;;;;;21.85;68.98;99922.94;10344599;28;20042;-61
2021/06/28 04:09:50;;;;;;;7.80;7.15;;;;;;;21.86;68.98;99911.09;10329250;28;20054;-61
2021/06/28 04:14:51;;;;;;;9.18;8.27;;;;;;;21.82;69.10;99905.22;10347338;28;20284;-61
2021/06/28 04:19:53;;;;;;;8.77;8.07;;;;;;;21.79;69.29;99905.63;10350245;28;20061;-61
2021/06/28 04:24:55;;;;;;;9.18;8.30;;;;;;;21.76;69.15;99900.63;10343874;28;20064;-60
2021/06/28 04:29:56;;;;;;;9.25;8.32;;;;;;;21.76;69.50;99906.06;10335229;28;21084;-61
2021/06/28 04:34:58;;;;;;;10.45;9.45;;;;;;;21.75;69.71;99908.97;10355242;28;20041;-61
2021/06/28 04:40:00;;;;;;;9.70;8.90;;;;;;;21.74;69.87;99918.97;10348662;28;20050;-61
2021/06/28 04:45:02;;;;;;;10.23;9.23;;;;;;;21.77;69.69;99910.44;10355275;28;20105;-65
2021/06/28 04:50:06;;;;;;;9.43;8.63;;;;;;;21.85;69.47;99906.69;10347789;28;20645;-61
2021/06/28 04:55:09;;;;;;;;;;;;;;;21.99;68.90;99910.25;10351306;28;20129;-61
2021/06/28 05:00:14;;;;;;;10.43;9.43;;;;;;;22.16;68.02;99889.84;10353152;28;19921;-60
2021/06/28 05:05:16;;;;;;;10.15;9.25;;;;;;;22.30;67.41;99906.09;10339750;28;20443;-61
2021/06/28 05:10:17;;;;;;;9.57;8.50;;;;;;;22.35;66.52;99915.31;10337445;28;20054;-62
2021/06/28 05:15:19;;;;;;;9.60;8.38;;;;;;;22.45;66.99;99898.63;10341865;28;20671;-61
2021/06/28 05:20:20;;;;;;;10.80;9.88;;;;;;;22.52;66.52;99910.28;10317130;28;20053;-61
2021/06/28 05:25:22;;;;;;;9.05;8.07;;;;;;;22.50;66.72;99917.78;10335107;28;20058;-63
2021/06/28 05:30:24;;;;;;;8.93;8.20;;;;;;;22.34;66.58;99943.47;10342266;28;20419;-61
2021/06/28 05:35:26;;;;;;;10.77;9.68;;;;;;;22.38;67.14;99938.44;10328535;28;20048;-61
2021/06/28 05:40:27;;;;;;;10.48;9.60;;;;;;;22.50;66.73;99944.09;10329796;28;20050;-61
2021/06/28 05:45:29;;;;;;;10.60;9.60;;;;;;;22.66;66.02;99950.97;10345861;28;20046;-60
2021/06/28 05:50:31;;;;;;;9.13;8.32;;;;;;;22.96;65.54;99948.63;10351790;28;20064;-60
2021/06/28 05:55:33;;;;;;;9.57;8.77;;;;;;;23.22;64.64;99947.72;10330357;28;20487;-62
2021/06/28 06:00:35;;;;;;;9.65;8.75;;;;;;;23.41;64.20;99951.41;10332863;28;20041;-61
2021/06/28 06:05:37;;;;;;;11.80;9.75;;;;;;;23.34;64.17;99966.06;10336956;28;20147;-61
2021/06/28 06:10:40;;;;;;;9.75;8.02;;;;;;;23.27;64.13;99961.50;10332662;28;20153;-61
2021/06/28 06:15:41;;;;;;;9.05;8.18;;;;;;;23.26;64.67;99957.13;10338979;28;20158;-60
2021/06/28 06:20:44;;;;;;;11.75;9.60;;;;;;;23.35;64.43;99956.88;10320848;28;20110;-60
2021/06/28 06:25:46;;;;;;;9.07;8.07;;;;;;;23.21;64.82;99962.38;10318578;28;20806;-61
2021/06/28 06:30:47;;;;;;;9.05;8.02;;;;;;;23.44;65.44;99958.31;10288190;28;20050;-61
2021/06/28 06:35:50;;;;;;;8.75;7.95;;;;;;;23.78;64.86;99964.41;10303512;28;20046;-60
2021/06/28 06:40:52;;;;;;;8.33;7.53;;;;;;;24.27;63.24;99964.75;10309551;28;20056;-60
2021/06/28 06:45:53;;;;;;;8.88;8.05;;;;;;;24.29;62.90;99976.25;10309568;28;20276;-60
2021/06/28 06:50:55;;;;;;;9.50;8.55;;;;;;;24.39;61.99;99973.03;10316931;28;20050;-62
2021/06/28 06:55:57;;;;;;;9.38;8.48;;;;;;;24.51;61.11;99973.97;10317999;28;20046;-61
2021/06/28 07:00:59;;;;;;;8.43;7.57;;;;;;;24.62;61.73;99958.84;10313067;28;20061;-61
2021/06/28 07:06:00;;;;;;;7.18;6.47;;;;;;;24.74;60.90;99961.66;10325298;28;20100;-61
2021/06/28 07:11:04;;;;;;;8.95;8.15;;;;;;;24.63;60.76;99963.25;10317106;28;20057;-60
2021/06/28 07:16:06;;;;;;;7.72;7.00;;;;;;;24.42;61.34;99983.47;10322395;28;20423;-60
2021/06/28 07:21:08;;;;;;;7.45;6.20;;;;;;;24.48;59.45;99988.84;10319402;28;20046;-61
2021/06/28 07:26:10;;;;;;;9.02;7.03;;;;;;;24.69;59.61;99992.28;10312525;28;20068;-61
2021/06/28 07:31:11;;;;;;;8.27;7.03;;;;;;;24.52;59.65;99994.69;10319142;28;20518;-61
2021/06/28 07:36:13;;;;;;;7.43;6.72;;;;;;;24.38;59.66;99998.56;10324708;28;20056;-61
2021/06/28 07:41:15;;;;;;;7.43;6.70;;;;;;;24.56;59.71;100006.81;10305757;28;20046;-60
2021/06/28 07:46:16;;;;;;;6.00;5.40;;;;;;;24.89;59.82;100002.97;10306683;28;20045;-60
2021/06/28 07:51:18;;;;;;;5.72;5.22;;;;;;;25.14;59.09;100013.00;10302052;28;20208;-61
2021/06/28 07:56:19;;;;;;;6.30;4.50;;;;;;;25.04;57.57;99998.03;10310019;28;20462;-60
2021/06/28 08:01:22;;;;;;;3.97;3.50;;;;;;;25.25;57.54;99987.72;10308226;28;20279;-61
2021/06/28 08:06:23;;;;;;;3.42;3.13;;;;;;;25.44;54.29;99995.94;10310257;28;20455;-62
2021/06/28 08:11:26;;;;;;;5.07;3.47;;;;;;;25.59;55.61;99994.47;10309484;28;20066;-61
2021/06/28 08:16:28;;;;;;;4.67;4.27;;;;;;;25.81;52.83;100002.19;10290998;28;20046;-60
2021/06/28 08:21:29;;;;;;;4.43;4.03;;;;;;;25.92;54.25;100004.09;10314290;28;20154;-60
2021/06/28 08:26:33;;;;;;;4.60;4.20;;;;;;;26.23;54.08;99994.06;10298378;28;20042;-62
2021/06/28 08:31:36;;;;;;;3.97;3.58;;;;;;;26.62;52.71;99980.00;10318424;28;20053;-63
2021/06/28 08:36:47;;;;;;;3.97;2.80;;;;;;;26.89;50.58;99974.94;10311081;28;20054;-60
2021/06/28 08:41:52;;;;;;;4.77;3.43;;;;;;;27.44;50.56;99978.31;10318768;28;20566;-61
2021/06/28 08:46:54;;;;;;;4.10;3.72;;;;;;;27.89;47.71;99993.16;10289468;28;20491;-68
2021/06/28 08:51:56;;;;;;;4.00;3.60;;;;;;;27.71;48.74;99983.22;10313355;28;20052;-63
2021/06/28 08:56:58;;;;;;;4.63;3.80;;;;;;;27.98;47.71;99998.03;10316912;28;20478;-60
2021/06/28 09:01:59;;;;;;;3.78;3.47;;;;;;;27.77;48.85;99987.72;10311572;28;20046;-61
2021/06/28 09:07:18;;;;;;;4.20;3.90;;;;;;;27.63;48.50;99976.25;10309198;28;20046;-60
2021/06/28 09:12:21;;;;;;;3.97;3.67;;;;;;;27.77;48.73;99983.06;10302607;28;20499;-60
2021/06/28 09:17:33;;;;;;;;;;;;;;;28.20;47.55;99965.28;10317139;28;20046;-60
2021/06/28 09:22:34;;;;;;;3.83;3.53;;;;;;;28.51;45.73;99979.50;10323688;28;19943;-61
2021/06/28 09:27:44;;;;;;;4.10;3.23;;;;;;;28.60;46.19;99982.69;10324403;28;20129;-64
2021/06/28 09:32:56;;;;;;;4.57;3.17;;;;;;;29.04;45.23;99992.91;10325092;28;20585;-65
2021/06/28 09:38:06;;;;;;;3.80;3.50;;;;;;;29.32;44.32;99991.13;10307378;28;20046;-62
2021/06/28 09:43:25;;;;;;;2.83;2.63;;;;;;;29.82;43.85;100003.81;10330989;28;20045;-62
2021/06/28 09:48:29;;;;;;;6.97;3.45;;;;;;;30.03;42.94;100009.53;10326020;28;20041;-63
2021/06/28 09:53:31;;;;;;;4.22;3.25;;;;;;;29.88;43.99;99997.31;10316609;28;20062;-62
2021/06/28 09:58:32;;;;;;;3.23;2.97;;;;;;;29.65;44.28;100003.03;10318539;28;20050;-62
2021/06/28 10:03:49;;;;;;;4.03;3.67;;;;;;;29.39;43.33;99991.75;10325852;28;20065;-62
2021/06/28 10:09:00;;;;;;;3.90;3.10;;;;;;;29.00;45.02;100008.19;10313153;28;20050;-63
2021/06/28 10:14:04;;;;;;;3.35;3.05;;;;;;;28.88;45.18;100006.38;10325649;28;20756;-62
2021/06/28 10:19:08;;;;;;;4.20;3.08;;;;;;;28.94;44.94;100007.28;10302870;28;20063;-62
2021/06/28 10:24:10;;;;;;;3.70;3.15;;;;;;;29.24;44.16;99997.88;10316016;28;20081;-62
2021/06/28 10:29:12;;;;;;;3.28;2.78;;;;;;;29.72;43.94;99993.53;10314491;28;20061;-62
2021/06/28 10:34:14;;;;;;;3.70;3.40;;;;;;;30.14;43.19;99992.06;10312228;28;20058;-62
2021/06/28 10:39:26;;;;;;;3.20;2.65;;;;;;;30.36;42.55;99986.50;10297654;28;20046;-62
2021/06/28 10:44:46;;;;;;;3.17;2.88;;;;;;;30.89;40.03;99972.91;10314796;28;20056;-63
2021/06/28 10:49:52;;;;;;;3.88;2.50;;;;;;;30.78;39.74;99984.94;10312126;28;20053;-63
2021/06/28 10:54:54;;;;;;;2.95;2.40;;;;;;;30.79;38.04;99961.84;10314295;28;20060;-61
2021/06/28 10:59:55;;;;;;;2.47;2.28;;;;;;;30.02;40.34;99953.00;10325412;28;20552;-61
2021/06/28 11:04:57;;;;;;;3.05;2.78;;;;;;;29.47;41.64;99947.47;10311624;28;20188;-61
2021/06/28 11:09:59;;;;;;;2.95;2.75;;;;;;;29.22;42.37;99950.72;10319595;28;20058;-67
2021/06/28 11:15:08;;;;;;;2.80;2.60;;;;;;;29.38;41.68;99949.81;10324279;28;20057;-62
2021/06/28 11:20:20;;;;;;;2.97;2.60;;;;;;;29.83;41.43;99941.56;10324630;28;20060;-63
2021/06/28 11:25:25;;;;;;;2.97;2.67;;;;;;;30.41;40.06;99941.81;10309814;28;20053;-62
2021/06/28 11:30:29;;;;;;;3.10;2.78;;;;;;;30.25;40.99;99935.34;10319612;28;20133;-62
2021/06/28 11:35:50;;;;;;;4.78;3.20;;;;;;;30.37;40.15;99946.16;10313261;28;20137;-62
2021/06/28 11:40:54;;;;;;;2.88;2.67;;;;;;;30.61;40.05;99941.97;10312414;28;20050;-61
2021/06/28 11:45:56;;;;;;;3.00;2.42;;;;;;;31.06;39.33;99930.72;10330731;28;20081;-64
2021/06/28 11:50:58;;;;;;;3.15;2.85;;;;;;;31.28;39.20;99925.84;10319946;28;20303;-62
2021/06/28 11:55:59;;;;;;;2.80;2.60;;;;;;;31.04;38.71;99913.69;10325812;28;24031;-62
2021/06/28 12:01:06;;;;;;;3.03;2.72;;;;;;;31.40;38.49;99916.56;10314532;28;20311;-62
2021/06/28 12:06:12;;;;;;;3.08;2.67;;;;;;;31.59;37.67;99920.50;10309190;28;20085;-63
2021/06/28 12:11:13;;;;;;;3.28;2.92;;;;;;;31.79;38.15;99919.69;10308659;28;20191;-62
2021/06/28 12:16:15;;;;;;;;;;;;;;;31.61;36.84;99920.22;10306195;28;20411;-62
2021/06/28 12:21:28;;;;;;;3.07;2.87;;;;;;;31.54;37.84;99913.03;10308575;28;19922;-61
2021/06/28 12:26:30;;;;;;;2.97;2.35;;;;;;;31.72;38.29;99908.97;10311939;28;23723;-61
2021/06/28 12:31:32;;;;;;;4.47;3.10;;;;;;;31.78;37.48;99914.47;10313441;28;20046;-62
2021/06/28 12:36:33;;;;;;;3.22;2.88;;;;;;;31.70;38.33;99922.16;10308289;28;20072;-62
2021/06/28 12:41:35;;;;;;;2.92;2.50;;;;;;;31.58;37.57;99907.84;10312031;28;20046;-61
2021/06/28 12:46:37;;;;;;;4.00;2.97;;;;;;;31.59;37.21;99917.75;10306547;28;20468;-61
2021/06/28 12:51:38;;;;;;;;;;;;;;;31.91;36.94;99927.69;10298255;28;20237;-62
2021/06/28 12:56:40;;;;;;;2.90;2.70;;;;;;;32.22;36.36;99916.75;10316173;28;19925;-62
2021/06/28 13:01:43;;;;;;;4.05;2.45;;;;;;;32.17;36.76;99913.97;10321083;28;20085;-61
2021/06/28 13:06:46;;;;;;;2.45;2.35;;;;;;;32.45;36.83;99903.50;10336513;28;20054;-62
2021/06/28 13:11:56;;;;;;;2.53;2.33;;;;;;;32.59;36.15;99904.56;10340924;28;20049;-61
2021/06/28 13:17:27;;;;;;;2.92;2.45;;;;;;;32.33;35.63;99901.03;10335018;28;20054;-62
2021/06/28 13:22:41;;;;;;;3.72;2.72;;;;;;;32.49;36.26;99888.91;10324995;28;20054;-61
2021/06/28 13:27:43;;;;;;;8.30;3.05;;;;;;;32.63;35.44;99882.81;10305725;28;20050;-61
2021/06/28 13:32:45;;;;;;;2.35;2.25;;;;;;;32.33;36.26;99885.31;10332035;28;20045;-62
2021/06/28 13:37:46;;;;;;;3.70;2.85;;;;;;;32.15;36.64;99878.47;10320398;28;20073;-62
2021/06/28 13:42:53;;;;;;;3.42;2.45;;;;;;;32.18;36.76;99877.09;10331721;28;20053;-61
2021/06/28 13:48:00;;;;;;;2.53;2.33;;;;;;;32.12;37.10;99878.19;10320115;28;20053;-61
2021/06/28 13:53:07;;;;;;;5.47;2.65;;;;;;;32.19;36.58;99879.56;10330829;28;20049;-67
2021/06/28 13:58:10;;;;;;;3.45;2.63;;;;;;;32.44;36.37;99875.13;10316548;28;20062;-61
2021/06/28 14:03:14;;;;;;;2.30;2.20;;;;;;;32.13;36.91;99875.16;10326390;28;20127;-61
2021/06/28 14:08:18;;;;;;;3.40;3.10;;;;;;;31.97;37.43;99871.56;10312017;28;20054;-61
2021/06/28 14:13:22;;;;;;;3.25;2.80;;;;;;;32.06;37.05;99869.09;10311922;28;20052;-67
2021/06/28 14:18:27;;;;;;;2.55;2.35;;;;;;;31.97;37.41;99860.53;10320962;28;20103;-61
2021/06/28 14:23:28;;;;;;;3.58;3.30;;;;;;;31.82;38.11;99869.63;10339346;28;20042;-62
2021/06/28 14:28:30;;;;;;;3.47;2.67;;;;;;;31.65;38.12;99863.56;10305250;28;20053;-62
2021/06/28 14:33:31;;;;;;;3.78;2.95;;;;;;;31.64;37.89;99861.91;10332419;28;20409;-62
2021/06/28 14:38:33;;;;;;;;;;;;;;;31.29;37.58;99866.22;10315866;28;20068;-62
2021/06/28 14:43:50;;;;;;;3.63;3.15;;;;;;;30.95;38.29;99853.69;10322249;28;19929;-61
2021/06/28 14:48:51;;;;;;;3.60;2.80;;;;;;;30.91;38.19;99854.50;10320408;28;20046;-62
2021/06/28 14:53:53;;;;;;;2.80;2.60;;;;;;;30.87;37.96;99859.72;10323863;28;20050;-66
2021/06/28 14:58:55;;;;;;;2.55;2.35;;;;;;;30.99;37.94;99843.03;10322501;28;20132;-62
2021/06/28 15:03:56;;;;;;;3.20;3.00;;;;;;;30.93;38.40;99842.16;10324600;28;20046;-62
2021/06/28 15:08:58;;;;;;;3.60;2.72;;;;;;;30.94;38.35;99842.97;10315270;28;20090;-60
2021/06/28 15:13:59;;;;;;;4.05;3.47;;;;;;;30.74;39.11;99827.25;10303568;28;20116;-60
2021/06/28 15:19:01;;;;;;;2.90;2.70;;;;;;;30.83;39.34;99825.63;10312017;28;20057;-60
2021/06/28 15:24:03;;;;;;;2.92;2.72;;;;;;;30.85;39.28;99812.44;10327509;28;20436;-61
2021/06/28 15:29:05;;;;;;;2.53;2.33;;;;;;;30.73;38.28;99800.84;10317448;28;20399;-70
2021/06/28 15:34:06;;;;;;;2.70;2.50;;;;;;;30.73;38.31;99801.69;10330859;28;20046;-60
2021/06/28 15:39:09;;;;;;;2.78;2.42;;;;;;;30.62;37.99;99792.56;10325671;28;20068;-61
2021/06/28 15:44:11;;;;;;;2.58;2.30;;;;;;;30.63;38.43;99788.75;10328028;28;20056;-61
2021/06/28 15:49:14;;;;;;;2.13;1.92;;;;;;;30.81;38.14;99803.09;10324425;28;20042;-60
2021/06/28 15:54:16;;;;;;;2.30;2.10;;;;;;;30.72;37.37;99797.28;10323928;28;20046;-61
2021/06/28 15:59:18;;;;;;;2.92;2.72;;;;;;;30.62;38.29;99789.00;10324587;28;20502;-60
2021/06/28 16:04:19;;;;;;;2.83;1.95;;;;;;;30.70;38.82;99793.16;10316870;28;20054;-60
2021/06/28 16:09:21;;;;;;;4.75;3.20;;;;;;;30.62;38.44;99791.75;10323703;28;20396;-60
2021/06/28 16:14:23;;;;;;;2.40;2.20;;;;;;;30.47;37.52;99789.75;10321556;28;20050;-61
2021/06/28 16:19:25;;;;;;;3.97;2.05;;;;;;;30.32;38.47;99783.06;10319814;28;20053;-62
2021/06/28 16:24:39;;;;;;;2.35;1.85;;;;;;;30.46;37.80;99782.59;10319863;28;20069;-61
2021/06/28 16:29:41;;;;;;;1.90;1.77;;;;;;;30.71;36.79;99775.59;10320235;28;20050;-62
2021/06/28 16:34:43;;;;;;;2.22;1.48;;;;;;;30.81;37.09;99773.69;10326455;28;20042;-62
2021/06/28 16:39:48;;;;;;;1.60;1.50;;;;;;;30.72;36.26;99764.34;10327272;28;20058;-63
2021/06/28 16:44:49;;;;;;;1.85;1.60;;;;;;;30.57;36.65;99767.84;10316790;28;20054;-62
2021/06/28 16:49:51;;;;;;;4.57;1.85;;;;;;;30.45;35.91;99770.00;10324910;28;20061;-62
2021/06/28 16:54:52;;;;;;;1.73;1.40;;;;;;;30.27;35.92;99752.03;10327547;28;20053;-62
2021/06/28 16:59:54;;;;;;;2.33;1.65;;;;;;;29.86;36.57;99747.13;10312145;28;20289;-62
2021/06/28 17:04:56;;;;;;;1.95;1.60;;;;;;;29.59;37.24;99747.97;10295755;28;20062;-62
2021/06/28 17:09:58;;;;;;;3.87;1.97;;;;;;;29.38;38.11;99729.69;10328292;28;20937;-62
2021/06/28 17:14:59;;;;;;;4.63;1.70;;;;;;;29.20;38.07;99723.50;10319001;28;20046;-62
2021/06/28 17:20:01;;;;;;;2.83;1.77;;;;;;;29.13;38.67;99733.03;10337154;28;20057;-61
2021/06/28 17:25:04;;;;;;;2.27;1.70;;;;;;;28.94;39.48;99746.25;10333398;28;20543;-62
2021/06/28 17:30:06;;;;;;;2.47;1.98;;;;;;;28.86;40.09;99748.34;10325438;28;20518;-61
2021/06/28 17:35:08;;;;;;;2.10;1.90;;;;;;;28.78;40.51;99762.50;10329053;28;20050;-62
2021/06/28 17:40:12;;;;;;;1.60;1.50;;;;;;;28.71;40.65;99781.03;10333803;28;20046;-61
2021/06/28 17:45:14;;;;;;;2.45;2.05;;;;;;;28.66;40.50;99778.22;10334429;28;20046;-61
2021/06/28 17:50:15;;;;;;;2.88;1.60;;;;;;;28.69;40.93;99784.03;10336757;28;20049;-61
2021/06/28 17:55:17;;;;;;;2.92;2.00;;;;;;;28.59;41.17;99775.66;10336772;28;20064;-61
2021/06/28 18:00:20;;;;;;;3.03;1.90;;;;;;;28.51;41.44;99787.88;10331129;28;20057;-61
2021/06/28 18:05:21;;;;;;;2.55;2.10;;;;;;;28.47;42.03;99792.19;10336559;28;20053;-61
2021/06/28 18:10:23;;;;;;;2.92;2.10;;;;;;;28.44;42.14;99791.88;10329818;28;20057;-61
2021/06/28 18:15:24;;;;;;;2.40;2.20;;;;;;;28.47;42.54;99788.66;10311995;28;20053;-65
2021/06/28 18:20:26;;;;;;;2.93;2.10;;;;;;;28.48;43.21;99777.44;10328554;28;20137;-61
2021/06/28 18:25:27;;;;;;;5.77;2.17;;;;;;;28.47;43.33;99780.44;10330374;28;20064;-61
2021/06/28 18:30:29;;;;;;;3.27;2.30;;;;;;;28.41;43.35;99797.88;10337159;28;20061;-61
2021/06/28 18:35:31;;;;;;;2.53;1.63;;;;;;;28.44;43.90;99811.88;10340470;28;20130;-61
2021/06/28 18:40:32;;;;;;;4.67;2.10;;;;;;;28.41;45.96;99831.53;10330968;28;20050;-61
2021/06/28 18:45:34;;;;;;;3.73;2.10;;;;;;;28.31;45.86;99828.66;10329725;28;20053;-61
2021/06/28 18:51:09;;;;;;;4.25;3.85;;;;;;;28.20;45.35;99825.75;10331298;28;20868;-61
2021/06/28 18:56:34;;;;;;;2.97;2.77;;;;;;;27.89;46.54;99834.53;10333723;28;20050;-61
2021/06/28 19:01:35;;;;;;;3.22;2.92;;;;;;;27.57;48.11;99832.34;10326174;28;20085;-61
2021/06/28 19:06:40;;;;;;;4.60;2.93;;;;;;;27.35;49.65;99852.16;10320703;28;20049;-63
2021/06/28 19:11:43;;;;;;;3.45;3.15;;;;;;;27.15;50.83;99858.88;10328269;28;20141;-62
2021/06/28 19:16:45;;;;;;;3.55;2.75;;;;;;;26.88;50.69;99846.84;10325483;28;20825;-63
2021/06/28 19:21:48;;;;;;;2.60;2.40;;;;;;;26.61;50.05;99841.88;10329631;28;20045;-62
2021/06/28 19:26:49;;;;;;;;;;;;;;;26.48;50.18;99856.59;10332845;28;20060;-62
2021/06/28 19:31:51;;;;;;;3.80;3.03;;;;;;;26.22;50.35;99860.63;10330050;28;19940;-62
2021/06/28 19:36:54;;;;;;;4.40;2.42;;;;;;;26.13;50.76;99867.50;10327727;28;20061;-62
2021/06/28 19:41:56;;;;;;;3.75;2.72;;;;;;;26.13;50.78;99867.50;10306815;28;20058;-65
2021/06/28 19:46:58;;;;;;;2.90;2.70;;;;;;;25.97;51.25;99880.72;10328931;28;20054;-62
2021/06/28 19:51:59;;;;;;;3.80;3.50;;;;;;;26.05;52.07;99904.97;10310826;28;20147;-62
2021/06/28 19:57:01;;;;;;;3.58;3.28;;;;;;;25.99;52.07;99911.34;10320136;28;20062;-62
2021/06/28 20:02:03;;;;;;;3.05;2.80;;;;;;;25.84;52.89;99916.38;10322803;28;20042;-62
2021/06/28 20:07:09;;;;;;;4.18;3.25;;;;;;;25.76;54.27;99915.66;10330167;28;20145;-62
2021/06/28 20:12:10;;;;;;;4.95;3.67;;;;;;;25.71;55.78;99918.22;10323140;28;20415;-62
2021/06/28 20:17:12;;;;;;;6.15;3.50;;;;;;;25.55;56.11;99922.44;10321403;28;20057;-62
2021/06/28 20:22:14;;;;;;;4.22;3.92;;;;;;;25.53;58.03;99926.44;10323954;28;20073;-59
2021/06/28 20:27:15;;;;;;;4.32;3.97;;;;;;;25.53;58.97;99929.19;10319081;28;20065;-62
2021/06/28 20:32:17;;;;;;;3.85;3.35;;;;;;;25.31;60.30;99921.50;10324964;28;20058;-63
2021/06/28 20:37:18;;;;;;;4.53;3.60;;;;;;;25.32;59.89;99925.06;10322180;28;20053;-62
2021/06/28 20:42:20;;;;;;;4.38;3.83;;;;;;;25.33;60.56;99935.72;10322962;28;20042;-62
2021/06/28 20:47:21;;;;;;;4.38;3.95;;;;;;;25.22;62.02;99939.16;10335121;28;20644;-62
2021/06/28 20:52:23;;;;;;;5.18;3.78;;;;;;;25.08;63.10;99952.09;10355429;28;20049;-62
2021/06/28 20:57:25;;;;;;;6.30;4.65;;;;;;;24.99;63.30;99967.91;10343324;28;20073;-62
2021/06/28 21:02:26;;;;;;;4.40;3.90;;;;;;;24.74;63.83;99965.25;10322884;28;20519;-62
2021/06/28 21:07:28;;;;;;;5.35;3.47;;;;;;;24.64;64.23;99968.47;10331027;28;20406;-61
2021/06/28 21:12:29;;;;;;;3.97;3.67;;;;;;;24.52;64.03;99983.81;10343802;28;20054;-60
2021/06/28 21:17:31;;;;;;;4.13;3.78;;;;;;;24.49;64.01;99985.09;10335390;28;20042;-64
2021/06/28 21:22:32;;;;;;;3.88;3.08;;;;;;;24.34;64.63;99998.19;10346565;28;20496;-60
2021/06/28 21:27:34;;;;;;;3.72;3.40;;;;;;;24.34;64.87;99998.19;10351538;28;20038;-61
2021/06/28 21:32:36;;;;;;;3.33;3.03;;;;;;;24.19;64.92;100001.22;10345092;28;20050;-60
2021/06/28 21:37:38;;;;;;;5.67;3.27;;;;;;;24.22;66.05;100000.78;10342085;28;20423;-67
2021/06/28 21:42:40;;;;;;;4.88;3.28;;;;;;;24.16;66.47;100018.78;10353204;28;20046;-60
2021/06/28 21:47:42;;;;;;;4.65;3.13;;;;;;;24.02;66.96;100021.81;10347785;28;20129;-61
2021/06/28 21:52:46;;;;;;;4.10;3.70;;;;;;;23.97;68.55;100022.47;10349711;28;20046;-61
2021/06/28 21:57:47;;;;;;;3.47;3.15;;;;;;;23.88;67.87;100024.59;10344060;28;20045;-61
2021/06/28 22:02:49;;;;;;;3.05;2.85;;;;;;;23.73;67.28;100021.28;10349366;28;20046;-62
2021/06/28 22:07:51;;;;;;;3.95;3.40;;;;;;;23.61;69.15;100013.81;10344605;28;20053;-60
2021/06/28 22:12:52;;;;;;;3.72;3.42;;;;;;;23.54;69.52;100015.72;10352958;28;20053;-61
2021/06/28 22:17:54;;;;;;;4.10;3.40;;;;;;;23.48;69.84;100016.59;10350442;28;20133;-60
2021/06/28 22:22:55;;;;;;;3.80;3.40;;;;;;;23.36;70.02;100018.28;10346955;28;20053;-61
2021/06/28 22:27:57;;;;;;;4.28;3.88;;;;;;;23.30;70.60;100020.00;10352708;28;20057;-61
2021/06/28 22:32:59;;;;;;;4.18;3.58;;;;;;;23.15;70.96;100022.09;10339267;28;20093;-61
2021/06/28 22:38:00;;;;;;;6.50;3.92;;;;;;;22.92;72.05;100020.63;10348903;28;20054;-63
2021/06/28 22:43:02;;;;;;;3.92;3.53;;;;;;;22.83;72.61;100014.59;10355020;28;20052;-61
2021/06/28 22:48:04;;;;;;;4.15;3.13;;;;;;;22.76;73.01;100011.88;10349740;28;20052;-61
2021/06/28 22:53:05;;;;;;;5.18;3.28;;;;;;;22.74;72.99;100005.00;10351785;28;20050;-61
2021/06/28 22:58:09;;;;;;;6.38;4.03;;;;;;;22.66;73.92;99988.94;10338087;28;20379;-61
2021/06/28 23:03:11;;;;;;;4.00;3.60;;;;;;;22.59;74.01;99980.78;10350507;28;20061;-61
2021/06/28 23:08:12;;;;;;;4.32;3.33;;;;;;;22.57;73.90;99969.31;10351365;28;20133;-61
2021/06/28 23:13:14;;;;;;;3.53;3.22;;;;;;;22.48;74.46;99960.56;10349641;28;20053;-60
2021/06/28 23:18:16;;;;;;;5.93;3.92;;;;;;;22.46;74.96;99948.25;10352851;28;20229;-60
2021/06/28 23:23:17;;;;;;;5.97;3.78;;;;;;;22.52;75.97;99939.28;10333550;28;20083;-59
2021/06/28 23:28:19;;;;;;;4.75;4.20;;;;;;;22.50;75.84;99934.06;10354224;28;20419;-60
2021/06/28 23:33:21;;;;;;;5.82;4.55;;;;;;;22.38;76.74;99923.03;10346162;28;20057;-64